sensor_id;sensor_type;location;lat;lon;timestamp;temperature;humidity
68248;SHT30;55064;49.636;12.164;2023-04-30T00:01:43;9.80;86.41
68248;SHT30;55064;49.636;12.164;2023-04-30T00:04:08;9.73;86.76
68248;SHT30;55064;49.636;12.164;2023-04-30T00:06:33;9.69;87.03
68248;SHT30;55064;49.636;12.164;2023-04-30T00:08:59;9.68;87.11
68248;SHT30;55064;49.636;12.164;2023-04-30T00:11:24;9.65;87.22
68248;SHT30;55064;49.636;12.164;2023-04-30T00:13:50;9.63;87.36
68248;SHT30;55064;49.636;12.164;2023-04-30T00:16:16;9.65;87.29
68248;SHT30;55064;49.636;12.164;2023-04-30T00:18:42;9.63;87.31
68248;SHT30;55064;49.636;12.164;2023-04-30T00:21:07;9.66;87.27
68248;SHT30;55064;49.636;12.164;2023-04-30T00:23:33;9.68;87.22
68248;SHT30;55064;49.636;12.164;2023-04-30T00:25:58;9.66;87.12
68248;SHT30;55064;49.636;12.164;2023-04-30T00:28:23;9.62;87.30
68248;SHT30;55064;49.636;12.164;2023-04-30T00:30:50;9.68;87.20
68248;SHT30;55064;49.636;12.164;2023-04-30T00:33:15;9.66;87.23
68248;SHT30;55064;49.636;12.164;2023-04-30T00:35:42;9.68;87.21
68248;SHT30;55064;49.636;12.164;2023-04-30T00:38:09;9.69;87.22
68248;SHT30;55064;49.636;12.164;2023-04-30T00:40:36;9.69;87.18
68248;SHT30;55064;49.636;12.164;2023-04-30T00:43:01;9.65;87.35
68248;SHT30;55064;49.636;12.164;2023-04-30T00:45:28;9.69;87.24
68248;SHT30;55064;49.636;12.164;2023-04-30T00:47:54;9.66;87.32
68248;SHT30;55064;49.636;12.164;2023-04-30T00:50:19;9.63;87.37
68248;SHT30;55064;49.636;12.164;2023-04-30T00:52:46;9.65;87.36
68248;SHT30;55064;49.636;12.164;2023-04-30T00:55:11;9.69;87.19
68248;SHT30;55064;49.636;12.164;2023-04-30T00:57:39;9.69;87.04
68248;SHT30;55064;49.636;12.164;2023-04-30T01:00:06;9.72;86.96
68248;SHT30;55064;49.636;12.164;2023-04-30T01:02:34;9.70;87.06
68248;SHT30;55064;49.636;12.164;2023-04-30T01:05:04;9.72;86.99
68248;SHT30;55064;49.636;12.164;2023-04-30T01:07:35;9.65;87.32
68248;SHT30;55064;49.636;12.164;2023-04-30T01:10:03;9.60;87.51
68248;SHT30;55064;49.636;12.164;2023-04-30T01:12:42;9.69;87.08
68248;SHT30;55064;49.636;12.164;2023-04-30T01:15:18;9.63;87.47
68248;SHT30;55064;49.636;12.164;2023-04-30T01:18:06;9.65;87.20
68248;SHT30;55064;49.636;12.164;2023-04-30T01:20:38;9.56;87.41
68248;SHT30;55064;49.636;12.164;2023-04-30T01:26:13;9.59;87.16
68248;SHT30;55064;49.636;12.164;2023-04-30T01:28:43;9.62;87.41
68248;SHT30;55064;49.636;12.164;2023-04-30T01:31:12;9.62;87.37
68248;SHT30;55064;49.636;12.164;2023-04-30T01:33:37;9.60;87.43
68248;SHT30;55064;49.636;12.164;2023-04-30T01:39:02;9.56;87.39
68248;SHT30;55064;49.636;12.164;2023-04-30T01:46:40;9.50;87.13
68248;SHT30;55064;49.636;12.164;2023-04-30T01:49:24;9.52;87.44
68248;SHT30;55064;49.636;12.164;2023-04-30T01:51:59;9.52;87.39
68248;SHT30;55064;49.636;12.164;2023-04-30T01:54:48;9.49;87.36
68248;SHT30;55064;49.636;12.164;2023-04-30T01:57:25;9.52;87.59
68248;SHT30;55064;49.636;12.164;2023-04-30T01:59:53;9.46;87.64
68248;SHT30;55064;49.636;12.164;2023-04-30T02:02:19;9.43;87.78
68248;SHT30;55064;49.636;12.164;2023-04-30T02:04:47;9.48;87.75
68248;SHT30;55064;49.636;12.164;2023-04-30T02:07:19;9.53;87.45
68248;SHT30;55064;49.636;12.164;2023-04-30T02:09:50;9.50;87.55
68248;SHT30;55064;49.636;12.164;2023-04-30T02:12:16;9.50;87.35
68248;SHT30;55064;49.636;12.164;2023-04-30T02:14:41;9.50;87.43
68248;SHT30;55064;49.636;12.164;2023-04-30T02:17:06;9.53;87.76
68248;SHT30;55064;49.636;12.164;2023-04-30T02:19:32;9.53;87.36
68248;SHT30;55064;49.636;12.164;2023-04-30T02:21:57;9.52;87.78
68248;SHT30;55064;49.636;12.164;2023-04-30T02:24:24;9.50;87.47
68248;SHT30;55064;49.636;12.164;2023-04-30T02:26:50;9.50;87.63
68248;SHT30;55064;49.636;12.164;2023-04-30T02:29:17;9.49;87.87
68248;SHT30;55064;49.636;12.164;2023-04-30T02:31:42;9.50;87.71
68248;SHT30;55064;49.636;12.164;2023-04-30T02:34:08;9.52;87.71
68248;SHT30;55064;49.636;12.164;2023-04-30T02:36:34;9.48;87.96
68248;SHT30;55064;49.636;12.164;2023-04-30T02:39:01;9.43;88.47
68248;SHT30;55064;49.636;12.164;2023-04-30T02:41:27;9.41;88.44
68248;SHT30;55064;49.636;12.164;2023-04-30T02:43:53;9.31;88.77
68248;SHT30;55064;49.636;12.164;2023-04-30T02:46:19;9.32;88.76
68248;SHT30;55064;49.636;12.164;2023-04-30T02:48:45;9.34;88.80
68248;SHT30;55064;49.636;12.164;2023-04-30T02:51:11;9.38;88.83
68248;SHT30;55064;49.636;12.164;2023-04-30T02:53:37;9.32;88.68
68248;SHT30;55064;49.636;12.164;2023-04-30T02:56:03;9.32;88.49
68248;SHT30;55064;49.636;12.164;2023-04-30T02:58:28;9.31;88.47
68248;SHT30;55064;49.636;12.164;2023-04-30T03:00:54;9.35;88.58
68248;SHT30;55064;49.636;12.164;2023-04-30T03:03:20;9.34;88.60
68248;SHT30;55064;49.636;12.164;2023-04-30T03:05:45;9.39;88.35
68248;SHT30;55064;49.636;12.164;2023-04-30T03:08:11;9.35;88.57
68248;SHT30;55064;49.636;12.164;2023-04-30T03:10:37;9.31;88.90
68248;SHT30;55064;49.636;12.164;2023-04-30T03:13:02;9.31;88.91
68248;SHT30;55064;49.636;12.164;2023-04-30T03:15:27;9.28;89.11
68248;SHT30;55064;49.636;12.164;2023-04-30T03:17:53;9.28;89.13
68248;SHT30;55064;49.636;12.164;2023-04-30T03:20:19;9.32;88.73
68248;SHT30;55064;49.636;12.164;2023-04-30T03:22:44;9.32;88.90
68248;SHT30;55064;49.636;12.164;2023-04-30T03:25:10;9.28;89.78
68248;SHT30;55064;49.636;12.164;2023-04-30T03:27:35;9.30;89.74
68248;SHT30;55064;49.636;12.164;2023-04-30T03:30:02;9.30;89.39
68248;SHT30;55064;49.636;12.164;2023-04-30T03:32:27;9.31;89.28
68248;SHT30;55064;49.636;12.164;2023-04-30T03:34:53;9.28;89.52
68248;SHT30;55064;49.636;12.164;2023-04-30T03:37:19;9.31;88.99
68248;SHT30;55064;49.636;12.164;2023-04-30T03:39:44;9.31;89.24
68248;SHT30;55064;49.636;12.164;2023-04-30T03:42:11;9.28;89.53
68248;SHT30;55064;49.636;12.164;2023-04-30T03:44:36;9.31;89.50
68248;SHT30;55064;49.636;12.164;2023-04-30T03:47:03;9.24;89.85
68248;SHT30;55064;49.636;12.164;2023-04-30T03:49:30;9.24;89.88
68248;SHT30;55064;49.636;12.164;2023-04-30T03:51:56;9.14;90.20
68248;SHT30;55064;49.636;12.164;2023-04-30T03:54:21;9.13;90.38
68248;SHT30;55064;49.636;12.164;2023-04-30T03:56:51;9.14;90.26
68248;SHT30;55064;49.636;12.164;2023-04-30T03:59:17;9.21;89.89
68248;SHT30;55064;49.636;12.164;2023-04-30T04:01:42;9.22;89.46
68248;SHT30;55064;49.636;12.164;2023-04-30T04:04:10;9.21;89.19
68248;SHT30;55064;49.636;12.164;2023-04-30T04:06:55;9.24;88.92
68248;SHT30;55064;49.636;12.164;2023-04-30T04:12:42;9.24;88.96
68248;SHT30;55064;49.636;12.164;2023-04-30T04:15:33;9.28;88.71
68248;SHT30;55064;49.636;12.164;2023-04-30T04:18:24;9.27;88.62
68248;SHT30;55064;49.636;12.164;2023-04-30T04:21:09;9.28;88.53
68248;SHT30;55064;49.636;12.164;2023-04-30T04:30:18;9.34;88.74
68248;SHT30;55064;49.636;12.164;2023-04-30T04:32:44;9.32;88.60
68248;SHT30;55064;49.636;12.164;2023-04-30T04:41:43;9.35;88.43
68248;SHT30;55064;49.636;12.164;2023-04-30T04:51:10;9.39;87.96
68248;SHT30;55064;49.636;12.164;2023-04-30T04:56:58;9.45;87.85
68248;SHT30;55064;49.636;12.164;2023-04-30T04:59:47;9.46;87.78
68248;SHT30;55064;49.636;12.164;2023-04-30T05:02:15;9.52;87.46
68248;SHT30;55064;49.636;12.164;2023-04-30T05:07:47;9.59;87.23
68248;SHT30;55064;49.636;12.164;2023-04-30T05:16:55;9.58;86.67
68248;SHT30;55064;49.636;12.164;2023-04-30T05:22:42;9.59;86.04
68248;SHT30;55064;49.636;12.164;2023-04-30T05:38:33;9.83;84.82
68248;SHT30;55064;49.636;12.164;2023-04-30T05:44:53;9.98;83.76
68248;SHT30;55064;49.636;12.164;2023-04-30T05:47:27;10.11;83.22
68248;SHT30;55064;49.636;12.164;2023-04-30T05:50:08;10.21;83.03
68248;SHT30;55064;49.636;12.164;2023-04-30T05:55:56;10.10;82.52
68248;SHT30;55064;49.636;12.164;2023-04-30T06:08:03;10.51;80.58
68248;SHT30;55064;49.636;12.164;2023-04-30T06:13:50;10.51;80.63
68248;SHT30;55064;49.636;12.164;2023-04-30T06:16:17;10.45;80.65
68248;SHT30;55064;49.636;12.164;2023-04-30T06:22:04;10.59;80.36
68248;SHT30;55064;49.636;12.164;2023-04-30T06:24:53;10.69;80.22
68248;SHT30;55064;49.636;12.164;2023-04-30T06:30:40;10.77;79.89
68248;SHT30;55064;49.636;12.164;2023-04-30T06:40:17;10.92;79.48
68248;SHT30;55064;49.636;12.164;2023-04-30T06:46:01;11.39;78.23
68248;SHT30;55064;49.636;12.164;2023-04-30T06:48:28;11.59;77.54
68248;SHT30;55064;49.636;12.164;2023-04-30T06:50:58;11.96;75.95
68248;SHT30;55064;49.636;12.164;2023-04-30T06:53:31;12.18;74.38
68248;SHT30;55064;49.636;12.164;2023-04-30T06:56:25;12.01;74.60
68248;SHT30;55064;49.636;12.164;2023-04-30T06:59:28;11.82;75.48
68248;SHT30;55064;49.636;12.164;2023-04-30T07:02:02;11.71;75.36
68248;SHT30;55064;49.636;12.164;2023-04-30T07:04:32;11.69;74.67
68248;SHT30;55064;49.636;12.164;2023-04-30T07:07:20;11.75;75.61
68248;SHT30;55064;49.636;12.164;2023-04-30T07:10:04;11.68;75.33
68248;SHT30;55064;49.636;12.164;2023-04-30T07:12:52;11.69;74.44
68248;SHT30;55064;49.636;12.164;2023-04-30T07:15:25;11.78;75.14
68248;SHT30;55064;49.636;12.164;2023-04-30T07:17:50;11.73;75.39
68248;SHT30;55064;49.636;12.164;2023-04-30T07:20:17;11.79;75.32
68248;SHT30;55064;49.636;12.164;2023-04-30T07:22:43;12.03;75.19
68248;SHT30;55064;49.636;12.164;2023-04-30T07:25:12;12.16;75.02
68248;SHT30;55064;49.636;12.164;2023-04-30T07:30:48;12.37;73.39
68248;SHT30;55064;49.636;12.164;2023-04-30T07:33:17;12.41;72.53
68248;SHT30;55064;49.636;12.164;2023-04-30T07:35:44;12.46;72.86
68248;SHT30;55064;49.636;12.164;2023-04-30T07:38:11;12.59;72.53
68248;SHT30;55064;49.636;12.164;2023-04-30T07:40:43;12.64;72.71
68248;SHT30;55064;49.636;12.164;2023-04-30T07:43:08;12.69;72.01
68248;SHT30;55064;49.636;12.164;2023-04-30T07:45:34;12.64;70.67
68248;SHT30;55064;49.636;12.164;2023-04-30T07:48:00;12.58;70.61
68248;SHT30;55064;49.636;12.164;2023-04-30T07:50:27;12.66;71.77
68248;SHT30;55064;49.636;12.164;2023-04-30T07:52:57;12.78;70.68
68248;SHT30;55064;49.636;12.164;2023-04-30T07:55:23;12.79;70.65
68248;SHT30;55064;49.636;12.164;2023-04-30T07:57:51;12.66;70.39
68248;SHT30;55064;49.636;12.164;2023-04-30T08:00:16;12.78;70.89
68248;SHT30;55064;49.636;12.164;2023-04-30T08:02:41;13.16;69.85
68248;SHT30;55064;49.636;12.164;2023-04-30T08:05:11;13.44;68.58
68248;SHT30;55064;49.636;12.164;2023-04-30T08:07:37;13.34;68.29
68248;SHT30;55064;49.636;12.164;2023-04-30T08:10:05;13.33;69.17
68248;SHT30;55064;49.636;12.164;2023-04-30T08:12:35;13.48;68.19
68248;SHT30;55064;49.636;12.164;2023-04-30T08:15:05;13.65;68.62
68248;SHT30;55064;49.636;12.164;2023-04-30T08:17:33;13.47;68.96
68248;SHT30;55064;49.636;12.164;2023-04-30T08:20:03;13.20;69.02
68248;SHT30;55064;49.636;12.164;2023-04-30T08:22:32;13.06;70.20
68248;SHT30;55064;49.636;12.164;2023-04-30T08:24:59;13.16;69.65
68248;SHT30;55064;49.636;12.164;2023-04-30T08:27:30;12.99;70.48
68248;SHT30;55064;49.636;12.164;2023-04-30T08:29:58;12.81;70.95
68248;SHT30;55064;49.636;12.164;2023-04-30T08:32:23;12.78;70.57
68248;SHT30;55064;49.636;12.164;2023-04-30T08:34:53;13.26;70.24
68248;SHT30;55064;49.636;12.164;2023-04-30T08:37:18;13.27;69.73
68248;SHT30;55064;49.636;12.164;2023-04-30T08:39:44;13.33;69.41
68248;SHT30;55064;49.636;12.164;2023-04-30T08:42:12;13.36;68.45
68248;SHT30;55064;49.636;12.164;2023-04-30T08:44:38;13.20;67.67
68248;SHT30;55064;49.636;12.164;2023-04-30T08:47:07;13.55;66.77
68248;SHT30;55064;49.636;12.164;2023-04-30T08:49:34;13.65;65.82
68248;SHT30;55064;49.636;12.164;2023-04-30T08:52:01;13.54;65.11
68248;SHT30;55064;49.636;12.164;2023-04-30T08:54:29;13.59;65.11
68248;SHT30;55064;49.636;12.164;2023-04-30T08:56:55;13.61;65.27
68248;SHT30;55064;49.636;12.164;2023-04-30T08:59:22;13.64;64.40
68248;SHT30;55064;49.636;12.164;2023-04-30T09:02:04;13.58;63.99
68248;SHT30;55064;49.636;12.164;2023-04-30T09:04:32;13.61;65.61
68248;SHT30;55064;49.636;12.164;2023-04-30T09:06:59;14.06;65.12
68248;SHT30;55064;49.636;12.164;2023-04-30T09:09:29;14.33;63.84
68248;SHT30;55064;49.636;12.164;2023-04-30T09:12:10;14.54;61.45
68248;SHT30;55064;49.636;12.164;2023-04-30T09:14:40;14.69;60.17
68248;SHT30;55064;49.636;12.164;2023-04-30T09:17:21;14.60;60.56
68248;SHT30;55064;49.636;12.164;2023-04-30T09:19:49;14.56;60.09
68248;SHT30;55064;49.636;12.164;2023-04-30T09:22:24;14.58;59.41
68248;SHT30;55064;49.636;12.164;2023-04-30T09:24:50;14.76;60.05
68248;SHT30;55064;49.636;12.164;2023-04-30T09:27:28;14.79;58.89
68248;SHT30;55064;49.636;12.164;2023-04-30T09:29:55;14.75;58.31
68248;SHT30;55064;49.636;12.164;2023-04-30T09:32:33;14.71;58.58
68248;SHT30;55064;49.636;12.164;2023-04-30T09:35:04;14.61;58.50
68248;SHT30;55064;49.636;12.164;2023-04-30T09:37:37;14.63;59.35
68248;SHT30;55064;49.636;12.164;2023-04-30T09:40:02;14.68;57.15
68248;SHT30;55064;49.636;12.164;2023-04-30T09:42:28;14.74;58.79
68248;SHT30;55064;49.636;12.164;2023-04-30T09:44:53;14.88;58.54
68248;SHT30;55064;49.636;12.164;2023-04-30T09:47:21;14.81;57.51
68248;SHT30;55064;49.636;12.164;2023-04-30T09:49:52;14.82;58.47
68248;SHT30;55064;49.636;12.164;2023-04-30T09:52:18;14.81;57.47
68248;SHT30;55064;49.636;12.164;2023-04-30T09:54:46;14.86;57.54
68248;SHT30;55064;49.636;12.164;2023-04-30T09:57:18;14.88;56.24
68248;SHT30;55064;49.636;12.164;2023-04-30T09:59:52;15.40;56.31
68248;SHT30;55064;49.636;12.164;2023-04-30T10:02:19;16.03;53.40
68248;SHT30;55064;49.636;12.164;2023-04-30T10:04:53;16.37;51.80
68248;SHT30;55064;49.636;12.164;2023-04-30T10:07:24;16.94;51.83
68248;SHT30;55064;49.636;12.164;2023-04-30T10:13:19;16.72;51.05
68248;SHT30;55064;49.636;12.164;2023-04-30T10:15:51;16.29;50.77
68248;SHT30;55064;49.636;12.164;2023-04-30T10:18:22;16.17;51.35
68248;SHT30;55064;49.636;12.164;2023-04-30T10:21:06;16.54;50.40
68248;SHT30;55064;49.636;12.164;2023-04-30T10:23:40;16.64;50.46
68248;SHT30;55064;49.636;12.164;2023-04-30T10:26:09;16.64;48.51
68248;SHT30;55064;49.636;12.164;2023-04-30T10:28:37;16.88;50.16
68248;SHT30;55064;49.636;12.164;2023-04-30T10:31:06;16.54;51.52
68248;SHT30;55064;49.636;12.164;2023-04-30T10:36:09;16.23;51.33
68248;SHT30;55064;49.636;12.164;2023-04-30T10:38:37;16.50;52.38
68248;SHT30;55064;49.636;12.164;2023-04-30T10:41:06;16.51;52.17
68248;SHT30;55064;49.636;12.164;2023-04-30T10:47:07;16.26;50.10
68248;SHT30;55064;49.636;12.164;2023-04-30T10:53:01;15.92;53.67
68248;SHT30;55064;49.636;12.164;2023-04-30T10:58:49;16.26;50.29
68248;SHT30;55064;49.636;12.164;2023-04-30T11:10:59;17.19;47.39
68248;SHT30;55064;49.636;12.164;2023-04-30T11:13:37;17.01;48.18
68248;SHT30;55064;49.636;12.164;2023-04-30T11:16:05;17.39;46.83
68248;SHT30;55064;49.636;12.164;2023-04-30T11:18:41;17.29;46.04
68248;SHT30;55064;49.636;12.164;2023-04-30T11:21:20;17.02;46.21
68248;SHT30;55064;49.636;12.164;2023-04-30T11:27:07;17.75;46.52
68248;SHT30;55064;49.636;12.164;2023-04-30T11:29:44;17.34;46.35
68248;SHT30;55064;49.636;12.164;2023-04-30T11:35:32;17.32;47.33
68248;SHT30;55064;49.636;12.164;2023-04-30T11:38:02;17.97;47.75
68248;SHT30;55064;49.636;12.164;2023-04-30T11:40:34;18.50;48.33
68248;SHT30;55064;49.636;12.164;2023-04-30T11:43:00;18.53;47.24
68248;SHT30;55064;49.636;12.164;2023-04-30T11:45:28;18.13;48.02
68248;SHT30;55064;49.636;12.164;2023-04-30T11:47:56;17.73;49.02
68248;SHT30;55064;49.636;12.164;2023-04-30T11:50:32;17.84;47.54
68248;SHT30;55064;49.636;12.164;2023-04-30T11:52:59;17.63;46.74
68248;SHT30;55064;49.636;12.164;2023-04-30T11:55:30;17.59;47.05
68248;SHT30;55064;49.636;12.164;2023-04-30T11:57:56;17.33;47.20
68248;SHT30;55064;49.636;12.164;2023-04-30T12:00:29;17.49;47.38
68248;SHT30;55064;49.636;12.164;2023-04-30T12:02:55;17.73;47.91
68248;SHT30;55064;49.636;12.164;2023-04-30T12:05:23;17.89;47.56
68248;SHT30;55064;49.636;12.164;2023-04-30T12:07:56;17.42;45.93
68248;SHT30;55064;49.636;12.164;2023-04-30T12:10:23;16.98;46.97
68248;SHT30;55064;49.636;12.164;2023-04-30T12:12:50;17.26;46.35
68248;SHT30;55064;49.636;12.164;2023-04-30T12:15:20;17.30;45.07
68248;SHT30;55064;49.636;12.164;2023-04-30T12:17:57;17.34;46.51
68248;SHT30;55064;49.636;12.164;2023-04-30T12:20:25;17.29;47.59
68248;SHT30;55064;49.636;12.164;2023-04-30T12:22:51;17.04;46.63
68248;SHT30;55064;49.636;12.164;2023-04-30T12:25:20;17.09;46.76
68248;SHT30;55064;49.636;12.164;2023-04-30T12:27:49;17.42;46.72
68248;SHT30;55064;49.636;12.164;2023-04-30T12:30:19;17.22;46.74
68248;SHT30;55064;49.636;12.164;2023-04-30T12:32:50;17.37;46.37
68248;SHT30;55064;49.636;12.164;2023-04-30T12:35:21;17.23;46.05
68248;SHT30;55064;49.636;12.164;2023-04-30T12:37:51;17.08;45.78
68248;SHT30;55064;49.636;12.164;2023-04-30T12:40:20;17.30;47.04
68248;SHT30;55064;49.636;12.164;2023-04-30T12:42:46;17.97;46.76
68248;SHT30;55064;49.636;12.164;2023-04-30T12:46:05;17.99;47.45
68248;SHT30;55064;49.636;12.164;2023-04-30T12:48:25;18.05;46.14
68248;SHT30;55064;49.636;12.164;2023-04-30T12:51:01;18.22;45.98
68248;SHT30;55064;49.636;12.164;2023-04-30T12:53:27;17.94;46.07
68248;SHT30;55064;49.636;12.164;2023-04-30T12:58:36;17.73;46.63
68248;SHT30;55064;49.636;12.164;2023-04-30T13:01:03;17.84;47.71
68248;SHT30;55064;49.636;12.164;2023-04-30T13:03:29;17.74;48.10
68248;SHT30;55064;49.636;12.164;2023-04-30T13:05:57;17.81;47.55
68248;SHT30;55064;49.636;12.164;2023-04-30T13:08:39;17.60;45.93
68248;SHT30;55064;49.636;12.164;2023-04-30T13:11:05;17.63;48.20
68248;SHT30;55064;49.636;12.164;2023-04-30T13:13:30;17.71;46.86
68248;SHT30;55064;49.636;12.164;2023-04-30T13:16:00;17.34;45.20
68248;SHT30;55064;49.636;12.164;2023-04-30T13:18:27;17.37;45.14
68248;SHT30;55064;49.636;12.164;2023-04-30T13:20:52;17.51;45.51
68248;SHT30;55064;49.636;12.164;2023-04-30T13:23:18;17.44;45.02
68248;SHT30;55064;49.636;12.164;2023-04-30T13:25:43;17.42;43.53
68248;SHT30;55064;49.636;12.164;2023-04-30T13:28:09;17.15;44.48
68248;SHT30;55064;49.636;12.164;2023-04-30T13:30:34;17.46;45.13
68248;SHT30;55064;49.636;12.164;2023-04-30T13:33:00;17.78;44.90
68248;SHT30;55064;49.636;12.164;2023-04-30T13:35:26;17.89;45.79
68248;SHT30;55064;49.636;12.164;2023-04-30T13:37:58;17.87;45.06
68248;SHT30;55064;49.636;12.164;2023-04-30T13:40:26;17.77;44.05
68248;SHT30;55064;49.636;12.164;2023-04-30T13:43:00;17.98;46.26
68248;SHT30;55064;49.636;12.164;2023-04-30T13:45:26;17.95;45.60
68248;SHT30;55064;49.636;12.164;2023-04-30T13:47:51;17.70;44.25
68248;SHT30;55064;49.636;12.164;2023-04-30T13:50:16;17.25;43.34
68248;SHT30;55064;49.636;12.164;2023-04-30T13:52:43;17.23;44.05
68248;SHT30;55064;49.636;12.164;2023-04-30T13:55:11;17.53;44.18
68248;SHT30;55064;49.636;12.164;2023-04-30T13:57:37;17.70;43.95
68248;SHT30;55064;49.636;12.164;2023-04-30T14:00:06;17.59;43.39
68248;SHT30;55064;49.636;12.164;2023-04-30T14:02:37;17.19;43.55
68248;SHT30;55064;49.636;12.164;2023-04-30T14:05:03;17.20;44.34
68248;SHT30;55064;49.636;12.164;2023-04-30T14:07:29;17.20;44.78
68248;SHT30;55064;49.636;12.164;2023-04-30T14:09:55;17.60;44.37
68248;SHT30;55064;49.636;12.164;2023-04-30T14:12:26;18.10;42.52
68248;SHT30;55064;49.636;12.164;2023-04-30T14:14:55;18.42;42.25
68248;SHT30;55064;49.636;12.164;2023-04-30T14:17:27;18.59;42.46
68248;SHT30;55064;49.636;12.164;2023-04-30T14:19:56;18.46;41.76
68248;SHT30;55064;49.636;12.164;2023-04-30T14:22:22;17.91;43.71
68248;SHT30;55064;49.636;12.164;2023-04-30T14:24:55;17.91;43.94
68248;SHT30;55064;49.636;12.164;2023-04-30T14:27:23;18.01;43.18
68248;SHT30;55064;49.636;12.164;2023-04-30T14:29:51;17.98;42.94
68248;SHT30;55064;49.636;12.164;2023-04-30T14:32:16;17.71;43.35
68248;SHT30;55064;49.636;12.164;2023-04-30T14:34:42;17.75;44.12
68248;SHT30;55064;49.636;12.164;2023-04-30T14:37:09;17.81;44.84
68248;SHT30;55064;49.636;12.164;2023-04-30T14:39:35;17.85;45.02
68248;SHT30;55064;49.636;12.164;2023-04-30T14:42:01;17.55;44.13
68248;SHT30;55064;49.636;12.164;2023-04-30T14:44:30;17.27;45.03
68248;SHT30;55064;49.636;12.164;2023-04-30T14:47:03;17.26;45.17
68248;SHT30;55064;49.636;12.164;2023-04-30T14:49:31;17.08;45.56
68248;SHT30;55064;49.636;12.164;2023-04-30T14:51:57;17.16;43.82
68248;SHT30;55064;49.636;12.164;2023-04-30T14:54:23;17.29;43.79
68248;SHT30;55064;49.636;12.164;2023-04-30T14:56:48;17.53;44.39
68248;SHT30;55064;49.636;12.164;2023-04-30T14:59:17;17.53;44.78
68248;SHT30;55064;49.636;12.164;2023-04-30T15:01:43;17.40;45.46
68248;SHT30;55064;49.636;12.164;2023-04-30T15:04:10;17.18;45.90
68248;SHT30;55064;49.636;12.164;2023-04-30T15:06:43;17.19;45.95
68248;SHT30;55064;49.636;12.164;2023-04-30T15:09:10;17.09;46.88
68248;SHT30;55064;49.636;12.164;2023-04-30T15:11:36;16.99;47.38
68248;SHT30;55064;49.636;12.164;2023-04-30T15:14:04;16.82;47.01
68248;SHT30;55064;49.636;12.164;2023-04-30T15:16:30;17.05;47.47
68248;SHT30;55064;49.636;12.164;2023-04-30T15:18:56;17.36;47.09
68248;SHT30;55064;49.636;12.164;2023-04-30T15:21:22;17.69;45.91
68248;SHT30;55064;49.636;12.164;2023-04-30T15:24:00;17.85;45.49
68248;SHT30;55064;49.636;12.164;2023-04-30T15:26:27;17.99;42.97
68248;SHT30;55064;49.636;12.164;2023-04-30T15:28:54;18.16;43.28
68248;SHT30;55064;49.636;12.164;2023-04-30T15:31:21;18.39;43.30
68248;SHT30;55064;49.636;12.164;2023-04-30T15:33:46;18.16;44.29
68248;SHT30;55064;49.636;12.164;2023-04-30T15:36:12;17.69;44.81
68248;SHT30;55064;49.636;12.164;2023-04-30T15:38:39;17.60;45.38
68248;SHT30;55064;49.636;12.164;2023-04-30T15:41:05;17.43;46.01
68248;SHT30;55064;49.636;12.164;2023-04-30T15:43:30;17.44;45.44
68248;SHT30;55064;49.636;12.164;2023-04-30T15:45:57;16.98;46.38
68248;SHT30;55064;49.636;12.164;2023-04-30T15:48:23;16.79;47.59
68248;SHT30;55064;49.636;12.164;2023-04-30T15:50:50;16.68;48.31
68248;SHT30;55064;49.636;12.164;2023-04-30T15:53:24;16.88;47.98
68248;SHT30;55064;49.636;12.164;2023-04-30T15:55:56;17.06;47.42
68248;SHT30;55064;49.636;12.164;2023-04-30T15:58:21;17.26;47.20
68248;SHT30;55064;49.636;12.164;2023-04-30T16:00:49;17.33;44.96
68248;SHT30;55064;49.636;12.164;2023-04-30T16:03:17;17.47;45.25
68248;SHT30;55064;49.636;12.164;2023-04-30T16:05:42;17.16;45.31
68248;SHT30;55064;49.636;12.164;2023-04-30T16:08:11;17.30;45.06
68248;SHT30;55064;49.636;12.164;2023-04-30T16:10:39;17.39;44.28
68248;SHT30;55064;49.636;12.164;2023-04-30T16:13:06;17.50;43.74
68248;SHT30;55064;49.636;12.164;2023-04-30T16:15:31;17.51;44.62
68248;SHT30;55064;49.636;12.164;2023-04-30T16:17:57;17.53;44.64
68248;SHT30;55064;49.636;12.164;2023-04-30T16:20:25;17.20;44.35
68248;SHT30;55064;49.636;12.164;2023-04-30T16:22:51;17.12;44.54
68248;SHT30;55064;49.636;12.164;2023-04-30T16:25:19;17.12;44.37
68248;SHT30;55064;49.636;12.164;2023-04-30T16:27:45;17.05;44.79
68248;SHT30;55064;49.636;12.164;2023-04-30T16:30:11;17.15;45.18
68248;SHT30;55064;49.636;12.164;2023-04-30T16:32:36;17.22;44.35
68248;SHT30;55064;49.636;12.164;2023-04-30T16:35:08;17.16;43.64
68248;SHT30;55064;49.636;12.164;2023-04-30T16:37:34;17.14;44.61
68248;SHT30;55064;49.636;12.164;2023-04-30T16:40:02;17.05;45.05
68248;SHT30;55064;49.636;12.164;2023-04-30T16:42:27;17.04;44.32
68248;SHT30;55064;49.636;12.164;2023-04-30T16:44:54;17.01;44.30
68248;SHT30;55064;49.636;12.164;2023-04-30T16:47:19;17.01;44.61
68248;SHT30;55064;49.636;12.164;2023-04-30T16:49:47;17.11;45.10
68248;SHT30;55064;49.636;12.164;2023-04-30T16:52:12;17.06;43.99
68248;SHT30;55064;49.636;12.164;2023-04-30T16:54:38;17.12;43.93
68248;SHT30;55064;49.636;12.164;2023-04-30T16:57:08;16.94;43.96
68248;SHT30;55064;49.636;12.164;2023-04-30T16:59:34;16.98;43.94
68248;SHT30;55064;49.636;12.164;2023-04-30T17:02:01;16.82;43.98
68248;SHT30;55064;49.636;12.164;2023-04-30T17:04:28;16.70;44.07
68248;SHT30;55064;49.636;12.164;2023-04-30T17:06:53;16.68;44.30
68248;SHT30;55064;49.636;12.164;2023-04-30T17:09:20;16.74;44.83
68248;SHT30;55064;49.636;12.164;2023-04-30T17:11:47;16.65;44.74
68248;SHT30;55064;49.636;12.164;2023-04-30T17:14:13;16.46;45.21
68248;SHT30;55064;49.636;12.164;2023-04-30T17:16:45;16.32;45.53
68248;SHT30;55064;49.636;12.164;2023-04-30T17:19:11;16.27;45.41
68248;SHT30;55064;49.636;12.164;2023-04-30T17:21:36;16.32;46.30
68248;SHT30;55064;49.636;12.164;2023-04-30T17:24:02;16.17;45.80
68248;SHT30;55064;49.636;12.164;2023-04-30T17:26:29;16.09;45.38
68248;SHT30;55064;49.636;12.164;2023-04-30T17:28:56;16.08;45.94
68248;SHT30;55064;49.636;12.164;2023-04-30T17:31:22;15.92;46.27
68248;SHT30;55064;49.636;12.164;2023-04-30T17:33:48;15.88;46.27
68248;SHT30;55064;49.636;12.164;2023-04-30T17:36:13;15.75;46.69
68248;SHT30;55064;49.636;12.164;2023-04-30T17:38:40;15.79;47.04
68248;SHT30;55064;49.636;12.164;2023-04-30T17:41:08;15.79;47.13
68248;SHT30;55064;49.636;12.164;2023-04-30T17:43:33;15.67;46.86
68248;SHT30;55064;49.636;12.164;2023-04-30T17:45:59;15.58;47.65
68248;SHT30;55064;49.636;12.164;2023-04-30T17:48:24;15.46;47.21
68248;SHT30;55064;49.636;12.164;2023-04-30T17:50:53;15.34;47.76